sensor_id;sensor_type;location;lat;lon;timestamp;temperature;humidity
27667;DHT22;15074;50.940;5.282;2023-03-03T00:00:02;2.10;99.90
27667;DHT22;15074;50.940;5.282;2023-03-03T00:02:29;2.20;99.90
27667;DHT22;15074;50.940;5.282;2023-03-03T00:04:54;2.20;99.90
27667;DHT22;15074;50.940;5.282;2023-03-03T00:07:20;2.20;99.90
27667;DHT22;15074;50.940;5.282;2023-03-03T00:09:48;2.10;99.90
27667;DHT22;15074;50.940;5.282;2023-03-03T00:12:33;2.10;99.90
27667;DHT22;15074;50.940;5.282;2023-03-03T00:15:00;2.10;99.90
27667;DHT22;15074;50.940;5.282;2023-03-03T00:17:28;2.10;99.90
27667;DHT22;15074;50.940;5.282;2023-03-03T00:19:55;2.10;99.90
27667;DHT22;15074;50.940;5.282;2023-03-03T00:22:32;2.10;99.90
27667;DHT22;15074;50.940;5.282;2023-03-03T00:25:30;2.10;99.90
27667;DHT22;15074;50.940;5.282;2023-03-03T00:28:20;2.00;99.90
27667;DHT22;15074;50.940;5.282;2023-03-03T00:30:47;1.90;99.90
27667;DHT22;15074;50.940;5.282;2023-03-03T00:35:56;1.80;99.90
27667;DHT22;15074;50.940;5.282;2023-03-03T00:38:22;1.70;99.90
27667;DHT22;15074;50.940;5.282;2023-03-03T00:40:48;1.70;99.90
27667;DHT22;15074;50.940;5.282;2023-03-03T00:43:19;1.70;99.90
27667;DHT22;15074;50.940;5.282;2023-03-03T00:45:53;1.70;99.90
27667;DHT22;15074;50.940;5.282;2023-03-03T00:48:27;1.80;99.90
27667;DHT22;15074;50.940;5.282;2023-03-03T00:50:55;1.70;99.90
27667;DHT22;15074;50.940;5.282;2023-03-03T00:53:23;1.60;99.90
27667;DHT22;15074;50.940;5.282;2023-03-03T00:59:14;1.70;99.90
27667;DHT22;15074;50.940;5.282;2023-03-03T01:01:40;1.70;99.90
27667;DHT22;15074;50.940;5.282;2023-03-03T01:04:05;1.60;99.90
27667;DHT22;15074;50.940;5.282;2023-03-03T01:09:52;1.60;99.90
27667;DHT22;15074;50.940;5.282;2023-03-03T01:12:18;1.50;99.90
27667;DHT22;15074;50.940;5.282;2023-03-03T01:14:44;1.40;99.90
27667;DHT22;15074;50.940;5.282;2023-03-03T01:17:10;1.30;99.90
27667;DHT22;15074;50.940;5.282;2023-03-03T01:20:13;1.40;99.90
27667;DHT22;15074;50.940;5.282;2023-03-03T01:26:07;1.40;99.90
27667;DHT22;15074;50.940;5.282;2023-03-03T01:28:33;1.30;99.90
27667;DHT22;15074;50.940;5.282;2023-03-03T01:31:01;1.40;99.90
27667;DHT22;15074;50.940;5.282;2023-03-03T01:33:27;1.30;99.90
27667;DHT22;15074;50.940;5.282;2023-03-03T01:35:52;1.30;99.90
27667;DHT22;15074;50.940;5.282;2023-03-03T01:38:18;1.40;99.90
27667;DHT22;15074;50.940;5.282;2023-03-03T01:40:56;1.40;99.90
27667;DHT22;15074;50.940;5.282;2023-03-03T01:46:44;1.50;99.90
27667;DHT22;15074;50.940;5.282;2023-03-03T01:49:56;1.60;99.90
27667;DHT22;15074;50.940;5.282;2023-03-03T01:52:31;1.70;99.90
27667;DHT22;15074;50.940;5.282;2023-03-03T01:55:05;1.60;99.90
27667;DHT22;15074;50.940;5.282;2023-03-03T01:57:37;1.80;99.90
27667;DHT22;15074;50.940;5.282;2023-03-03T02:00:22;1.90;99.90
27667;DHT22;15074;50.940;5.282;2023-03-03T02:02:47;1.90;99.90
27667;DHT22;15074;50.940;5.282;2023-03-03T02:05:14;1.90;99.90
27667;DHT22;15074;50.940;5.282;2023-03-03T02:08:05;2.00;99.90
27667;DHT22;15074;50.940;5.282;2023-03-03T02:10:52;2.10;99.90
27667;DHT22;15074;50.940;5.282;2023-03-03T02:13:17;2.10;99.90
27667;DHT22;15074;50.940;5.282;2023-03-03T02:15:43;2.20;99.90
27667;DHT22;15074;50.940;5.282;2023-03-03T02:18:25;2.20;99.90
27667;DHT22;15074;50.940;5.282;2023-03-03T02:29:09;2.10;99.90
27667;DHT22;15074;50.940;5.282;2023-03-03T02:31:34;2.20;99.90
27667;DHT22;15074;50.940;5.282;2023-03-03T02:34:02;2.10;99.90
27667;DHT22;15074;50.940;5.282;2023-03-03T02:36:33;2.10;99.90
27667;DHT22;15074;50.940;5.282;2023-03-03T02:42:00;1.90;99.90
27667;DHT22;15074;50.940;5.282;2023-03-03T02:44:28;1.90;99.90
27667;DHT22;15074;50.940;5.282;2023-03-03T02:46:56;2.00;99.90
27667;DHT22;15074;50.940;5.282;2023-03-03T02:49:27;1.80;99.90
27667;DHT22;15074;50.940;5.282;2023-03-03T02:51:54;1.80;99.90
27667;DHT22;15074;50.940;5.282;2023-03-03T02:54:21;1.80;99.90
27667;DHT22;15074;50.940;5.282;2023-03-03T02:56:47;1.80;99.90
27667;DHT22;15074;50.940;5.282;2023-03-03T02:59:13;1.90;99.90
27667;DHT22;15074;50.940;5.282;2023-03-03T03:01:39;1.90;99.90
27667;DHT22;15074;50.940;5.282;2023-03-03T03:04:26;1.80;99.90
27667;DHT22;15074;50.940;5.282;2023-03-03T03:07:10;2.00;99.90
27667;DHT22;15074;50.940;5.282;2023-03-03T03:09:36;1.80;99.90
27667;DHT22;15074;50.940;5.282;2023-03-03T03:12:01;1.90;99.90
27667;DHT22;15074;50.940;5.282;2023-03-03T03:14:27;1.90;99.90
27667;DHT22;15074;50.940;5.282;2023-03-03T03:16:57;2.00;99.90
27667;DHT22;15074;50.940;5.282;2023-03-03T03:19:23;1.90;99.90
27667;DHT22;15074;50.940;5.282;2023-03-03T03:21:48;1.80;99.90
27667;DHT22;15074;50.940;5.282;2023-03-03T03:24:14;1.70;99.90
27667;DHT22;15074;50.940;5.282;2023-03-03T03:30:19;1.80;99.90
27667;DHT22;15074;50.940;5.282;2023-03-03T03:32:45;1.80;99.90
27667;DHT22;15074;50.940;5.282;2023-03-03T03:35:11;1.70;99.90
27667;DHT22;15074;50.940;5.282;2023-03-03T03:37:38;1.60;99.90
27667;DHT22;15074;50.940;5.282;2023-03-03T03:40:04;1.60;99.90
27667;DHT22;15074;50.940;5.282;2023-03-03T03:42:30;1.70;99.90
27667;DHT22;15074;50.940;5.282;2023-03-03T03:44:56;1.70;99.90
27667;DHT22;15074;50.940;5.282;2023-03-03T03:47:21;1.60;99.90
27667;DHT22;15074;50.940;5.282;2023-03-03T03:49:47;1.50;99.90
27667;DHT22;15074;50.940;5.282;2023-03-03T03:52:13;1.40;99.90
27667;DHT22;15074;50.940;5.282;2023-03-03T03:54:38;1.50;99.90
27667;DHT22;15074;50.940;5.282;2023-03-03T04:01:01;1.20;99.90
27667;DHT22;15074;50.940;5.282;2023-03-03T04:03:27;1.10;99.90
27667;DHT22;15074;50.940;5.282;2023-03-03T04:05:53;1.10;99.90
27667;DHT22;15074;50.940;5.282;2023-03-03T04:08:19;1.20;99.90
27667;DHT22;15074;50.940;5.282;2023-03-03T04:10:45;1.30;99.90
27667;DHT22;15074;50.940;5.282;2023-03-03T04:13:11;1.20;99.90
27667;DHT22;15074;50.940;5.282;2023-03-03T04:15:53;1.20;99.90
27667;DHT22;15074;50.940;5.282;2023-03-03T04:18:19;1.30;99.90
27667;DHT22;15074;50.940;5.282;2023-03-03T04:20:44;1.20;99.90
27667;DHT22;15074;50.940;5.282;2023-03-03T04:23:10;1.10;99.90
27667;DHT22;15074;50.940;5.282;2023-03-03T04:25:36;1.00;99.90
27667;DHT22;15074;50.940;5.282;2023-03-03T04:28:18;1.00;99.90
27667;DHT22;15074;50.940;5.282;2023-03-03T04:30:45;0.90;99.90
27667;DHT22;15074;50.940;5.282;2023-03-03T04:33:10;0.90;99.90
27667;DHT22;15074;50.940;5.282;2023-03-03T04:35:36;0.90;99.90
27667;DHT22;15074;50.940;5.282;2023-03-03T04:38:02;0.90;99.90
27667;DHT22;15074;50.940;5.282;2023-03-03T04:40:27;0.90;99.90
27667;DHT22;15074;50.940;5.282;2023-03-03T04:42:53;0.90;99.90
27667;DHT22;15074;50.940;5.282;2023-03-03T04:45:19;0.90;99.90
27667;DHT22;15074;50.940;5.282;2023-03-03T04:47:44;1.00;99.90
27667;DHT22;15074;50.940;5.282;2023-03-03T04:50:10;1.10;99.90
27667;DHT22;15074;50.940;5.282;2023-03-03T04:52:52;1.10;99.90
27667;DHT22;15074;50.940;5.282;2023-03-03T04:55:18;1.20;99.90
27667;DHT22;15074;50.940;5.282;2023-03-03T04:57:43;1.10;99.90
27667;DHT22;15074;50.940;5.282;2023-03-03T05:03:30;1.10;99.90
27667;DHT22;15074;50.940;5.282;2023-03-03T05:05:55;1.10;99.90
27667;DHT22;15074;50.940;5.282;2023-03-03T05:08:21;1.00;99.90
27667;DHT22;15074;50.940;5.282;2023-03-03T05:10:51;1.10;99.90
27667;DHT22;15074;50.940;5.282;2023-03-03T05:13:17;1.20;99.90
27667;DHT22;15074;50.940;5.282;2023-03-03T05:15:47;1.20;99.90
27667;DHT22;15074;50.940;5.282;2023-03-03T05:18:13;1.10;99.90
27667;DHT22;15074;50.940;5.282;2023-03-03T05:20:39;1.10;99.90
27667;DHT22;15074;50.940;5.282;2023-03-03T05:23:08;0.90;99.90
27667;DHT22;15074;50.940;5.282;2023-03-03T05:25:34;0.90;99.90
27667;DHT22;15074;50.940;5.282;2023-03-03T05:27:59;1.00;99.90
27667;DHT22;15074;50.940;5.282;2023-03-03T05:30:25;1.10;99.90
27667;DHT22;15074;50.940;5.282;2023-03-03T05:32:51;1.10;99.90
27667;DHT22;15074;50.940;5.282;2023-03-03T05:35:16;1.10;99.90
27667;DHT22;15074;50.940;5.282;2023-03-03T05:37:42;1.10;99.90
27667;DHT22;15074;50.940;5.282;2023-03-03T05:40:50;1.20;99.90
27667;DHT22;15074;50.940;5.282;2023-03-03T05:43:16;1.30;99.90
27667;DHT22;15074;50.940;5.282;2023-03-03T05:45:41;1.10;99.90
27667;DHT22;15074;50.940;5.282;2023-03-03T05:48:07;1.10;99.90
27667;DHT22;15074;50.940;5.282;2023-03-03T05:50:49;1.20;99.90
27667;DHT22;15074;50.940;5.282;2023-03-03T05:53:15;1.20;99.90
27667;DHT22;15074;50.940;5.282;2023-03-03T05:55:40;1.30;99.90
27667;DHT22;15074;50.940;5.282;2023-03-03T05:58:06;1.20;99.90
27667;DHT22;15074;50.940;5.282;2023-03-03T06:01:07;1.20;99.90
27667;DHT22;15074;50.940;5.282;2023-03-03T06:03:32;1.20;99.90
27667;DHT22;15074;50.940;5.282;2023-03-03T06:05:58;1.10;99.90
27667;DHT22;15074;50.940;5.282;2023-03-03T06:08:24;0.90;99.90
27667;DHT22;15074;50.940;5.282;2023-03-03T06:10:51;0.80;99.90
27667;DHT22;15074;50.940;5.282;2023-03-03T06:13:17;0.90;99.90
27667;DHT22;15074;50.940;5.282;2023-03-03T06:15:43;1.10;99.90
27667;DHT22;15074;50.940;5.282;2023-03-03T06:18:08;1.20;99.90
27667;DHT22;15074;50.940;5.282;2023-03-03T06:20:34;1.10;99.90
27667;DHT22;15074;50.940;5.282;2023-03-03T06:23:06;1.10;99.90
27667;DHT22;15074;50.940;5.282;2023-03-03T06:25:32;1.10;99.90
27667;DHT22;15074;50.940;5.282;2023-03-03T06:28:00;1.10;99.90
27667;DHT22;15074;50.940;5.282;2023-03-03T06:30:36;1.00;99.90
27667;DHT22;15074;50.940;5.282;2023-03-03T06:33:02;1.10;99.90
27667;DHT22;15074;50.940;5.282;2023-03-03T06:35:28;1.00;99.90
27667;DHT22;15074;50.940;5.282;2023-03-03T06:37:53;0.90;99.90
27667;DHT22;15074;50.940;5.282;2023-03-03T06:40:19;0.90;99.90
27667;DHT22;15074;50.940;5.282;2023-03-03T06:42:45;0.90;99.90
27667;DHT22;15074;50.940;5.282;2023-03-03T06:45:29;0.90;99.90
27667;DHT22;15074;50.940;5.282;2023-03-03T06:47:55;1.00;99.90
27667;DHT22;15074;50.940;5.282;2023-03-03T06:50:21;1.20;99.90
27667;DHT22;15074;50.940;5.282;2023-03-03T06:52:47;1.20;99.90
27667;DHT22;15074;50.940;5.282;2023-03-03T06:55:22;1.20;99.90
27667;DHT22;15074;50.940;5.282;2023-03-03T06:58:10;1.10;99.90
27667;DHT22;15074;50.940;5.282;2023-03-03T07:00:37;1.30;99.90
27667;DHT22;15074;50.940;5.282;2023-03-03T07:03:15;1.10;99.90
27667;DHT22;15074;50.940;5.282;2023-03-03T07:08:30;1.10;99.90
27667;DHT22;15074;50.940;5.282;2023-03-03T07:11:00;1.10;99.90
27667;DHT22;15074;50.940;5.282;2023-03-03T07:14:19;1.10;99.90
27667;DHT22;15074;50.940;5.282;2023-03-03T07:17:09;1.00;99.90
27667;DHT22;15074;50.940;5.282;2023-03-03T07:19:36;1.10;99.90
27667;DHT22;15074;50.940;5.282;2023-03-03T07:29:24;1.40;99.90
27667;DHT22;15074;50.940;5.282;2023-03-03T07:31:57;1.50;99.90
27667;DHT22;15074;50.940;5.282;2023-03-03T07:38:16;1.40;99.90
27667;DHT22;15074;50.940;5.282;2023-03-03T07:44:17;1.40;99.90
27667;DHT22;15074;50.940;5.282;2023-03-03T07:46:47;1.40;99.90
27667;DHT22;15074;50.940;5.282;2023-03-03T07:55:45;1.40;99.90
27667;DHT22;15074;50.940;5.282;2023-03-03T08:11:04;1.50;99.90
27667;DHT22;15074;50.940;5.282;2023-03-03T08:20:57;1.70;99.90
27667;DHT22;15074;50.940;5.282;2023-03-03T08:30:12;1.80;99.90
27667;DHT22;15074;50.940;5.282;2023-03-03T08:36:14;1.90;99.90
27667;DHT22;15074;50.940;5.282;2023-03-03T08:38:41;2.00;99.90
27667;DHT22;15074;50.940;5.282;2023-03-03T08:41:43;2.00;99.90
27667;DHT22;15074;50.940;5.282;2023-03-03T08:47:59;1.90;99.90
27667;DHT22;15074;50.940;5.282;2023-03-03T08:53:29;2.00;99.90
27667;DHT22;15074;50.940;5.282;2023-03-03T08:55:58;2.00;99.90
27667;DHT22;15074;50.940;5.282;2023-03-03T09:12:17;2.50;99.90
27667;DHT22;15074;50.940;5.282;2023-03-03T09:25:34;3.00;99.90
27667;DHT22;15074;50.940;5.282;2023-03-03T09:32:20;2.60;99.90
27667;DHT22;15074;50.940;5.282;2023-03-03T10:11:52;3.10;99.90
27667;DHT22;15074;50.940;5.282;2023-03-03T10:17:52;3.20;99.90
27667;DHT22;15074;50.940;5.282;2023-03-03T10:22:51;3.50;99.90
27667;DHT22;15074;50.940;5.282;2023-03-03T10:32:17;3.40;99.90
27667;DHT22;15074;50.940;5.282;2023-03-03T10:38:26;3.80;99.90
27667;DHT22;15074;50.940;5.282;2023-03-03T10:44:01;4.40;99.90
27667;DHT22;15074;50.940;5.282;2023-03-03T11:07:02;3.90;99.90
27667;DHT22;15074;50.940;5.282;2023-03-03T11:15:22;4.10;99.90
27667;DHT22;15074;50.940;5.282;2023-03-03T11:18:24;3.90;99.90
27667;DHT22;15074;50.940;5.282;2023-03-03T11:40:52;4.30;99.90
27667;DHT22;15074;50.940;5.282;2023-03-03T11:43:29;4.50;99.90
27667;DHT22;15074;50.940;5.282;2023-03-03T11:46:02;4.70;99.90
27667;DHT22;15074;50.940;5.282;2023-03-03T11:48:37;5.00;99.90
27667;DHT22;15074;50.940;5.282;2023-03-03T11:51:13;5.30;99.90
27667;DHT22;15074;50.940;5.282;2023-03-03T11:53:58;5.40;99.90
27667;DHT22;15074;50.940;5.282;2023-03-03T12:02:13;5.50;99.90
27667;DHT22;15074;50.940;5.282;2023-03-03T12:04:43;5.60;99.90
27667;DHT22;15074;50.940;5.282;2023-03-03T12:13:02;5.70;99.90
27667;DHT22;15074;50.940;5.282;2023-03-03T12:21:26;5.30;99.90
27667;DHT22;15074;50.940;5.282;2023-03-03T12:24:15;5.80;99.90
27667;DHT22;15074;50.940;5.282;2023-03-03T12:26:53;5.90;99.90
27667;DHT22;15074;50.940;5.282;2023-03-03T12:32:25;5.90;99.90
27667;DHT22;15074;50.940;5.282;2023-03-03T12:37:52;6.00;99.90
27667;DHT22;15074;50.940;5.282;2023-03-03T12:40:25;5.80;99.90
27667;DHT22;15074;50.940;5.282;2023-03-03T12:48:40;6.00;99.90
27667;DHT22;15074;50.940;5.282;2023-03-03T12:56:43;6.50;99.90
27667;DHT22;15074;50.940;5.282;2023-03-03T13:10:14;6.70;99.90
27667;DHT22;15074;50.940;5.282;2023-03-03T13:12:55;7.30;99.90
27667;DHT22;15074;50.940;5.282;2023-03-03T13:15:33;7.30;99.90
27667;DHT22;15074;50.940;5.282;2023-03-03T13:21:09;8.10;99.90
27667;DHT22;15074;50.940;5.282;2023-03-03T13:26:43;7.70;99.90
27667;DHT22;15074;50.940;5.282;2023-03-03T13:29:19;7.70;99.90
27667;DHT22;15074;50.940;5.282;2023-03-03T13:31:58;7.80;99.90
27667;DHT22;15074;50.940;5.282;2023-03-03T13:37:40;7.70;99.90
27667;DHT22;15074;50.940;5.282;2023-03-03T13:40:23;7.90;99.90
27667;DHT22;15074;50.940;5.282;2023-03-03T13:43:01;8.20;99.90
27667;DHT22;15074;50.940;5.282;2023-03-03T13:59:34;9.70;99.90
27667;DHT22;15074;50.940;5.282;2023-03-03T14:05:00;8.10;99.90
27667;DHT22;15074;50.940;5.282;2023-03-03T14:07:44;7.40;99.90
27667;DHT22;15074;50.940;5.282;2023-03-03T14:10:25;7.90;99.90
27667;DHT22;15074;50.940;5.282;2023-03-03T14:13:11;7.20;99.90
27667;DHT22;15074;50.940;5.282;2023-03-03T14:15:47;7.50;99.90
27667;DHT22;15074;50.940;5.282;2023-03-03T14:18:26;8.00;99.90
27667;DHT22;15074;50.940;5.282;2023-03-03T14:21:15;8.70;99.90
27667;DHT22;15074;50.940;5.282;2023-03-03T14:26:22;9.90;99.90
27667;DHT22;15074;50.940;5.282;2023-03-03T14:28:49;10.70;99.90
27667;DHT22;15074;50.940;5.282;2023-03-03T14:31:25;11.60;99.90
27667;DHT22;15074;50.940;5.282;2023-03-03T14:34:01;11.80;99.90
27667;DHT22;15074;50.940;5.282;2023-03-03T14:36:31;11.60;99.90
27667;DHT22;15074;50.940;5.282;2023-03-03T14:38:57;11.80;99.90
27667;DHT22;15074;50.940;5.282;2023-03-03T14:41:49;11.90;99.90
27667;DHT22;15074;50.940;5.282;2023-03-03T14:44:53;10.80;99.90
27667;DHT22;15074;50.940;5.282;2023-03-03T14:47:22;10.50;99.90
27667;DHT22;15074;50.940;5.282;2023-03-03T14:49:49;10.50;99.90
27667;DHT22;15074;50.940;5.282;2023-03-03T14:54:46;10.10;99.90
27667;DHT22;15074;50.940;5.282;2023-03-03T14:57:49;10.30;99.90
27667;DHT22;15074;50.940;5.282;2023-03-03T15:02:40;10.90;99.90
27667;DHT22;15074;50.940;5.282;2023-03-03T15:05:39;11.40;99.90
27667;DHT22;15074;50.940;5.282;2023-03-03T15:08:14;10.90;99.90
27667;DHT22;15074;50.940;5.282;2023-03-03T15:10:42;9.70;99.90
27667;DHT22;15074;50.940;5.282;2023-03-03T15:13:34;9.10;99.90
27667;DHT22;15074;50.940;5.282;2023-03-03T15:16:16;9.10;99.90
27667;DHT22;15074;50.940;5.282;2023-03-03T15:21:29;9.10;99.90
27667;DHT22;15074;50.940;5.282;2023-03-03T15:40:29;8.00;99.90
27667;DHT22;15074;50.940;5.282;2023-03-03T15:48:50;7.80;99.90
27667;DHT22;15074;50.940;5.282;2023-03-03T15:54:29;7.80;99.90
27667;DHT22;15074;50.940;5.282;2023-03-03T15:57:12;7.80;99.90
27667;DHT22;15074;50.940;5.282;2023-03-03T16:02:56;7.90;99.90
27667;DHT22;15074;50.940;5.282;2023-03-03T16:08:07;7.60;99.90
27667;DHT22;15074;50.940;5.282;2023-03-03T16:10:46;7.70;99.90
27667;DHT22;15074;50.940;5.282;2023-03-03T16:31:44;7.10;99.90
27667;DHT22;15074;50.940;5.282;2023-03-03T16:42:32;7.20;99.90
27667;DHT22;15074;50.940;5.282;2023-03-03T16:53:17;6.90;99.90
27667;DHT22;15074;50.940;5.282;2023-03-03T16:56:01;6.90;99.90
27667;DHT22;15074;50.940;5.282;2023-03-03T17:18:39;6.70;99.90
27667;DHT22;15074;50.940;5.282;2023-03-03T17:30:16;6.30;99.90
27667;DHT22;15074;50.940;5.282;2023-03-03T17:41:43;5.60;99.90
27667;DHT22;15074;50.940;5.282;2023-03-03T17:47:03;5.40;99.90
27667;DHT22;15074;50.940;5.282;2023-03-03T18:03:55;5.00;99.90
27667;DHT22;15074;50.940;5.282;2023-03-03T18:18:04;4.60;99.90
27667;DHT22;15074;50.940;5.282;2023-03-03T18:26:35;4.50;99.90
27667;DHT22;15074;50.940;5.282;2023-03-03T18:29:23;4.50;99.90
27667;DHT22;15074;50.940;5.282;2023-03-03T18:38:33;4.10;99.90
27667;DHT22;15074;50.940;5.282;2023-03-03T18:44:30;4.10;99.90
27667;DHT22;15074;50.940;5.282;2023-03-03T18:46:56;4.00;99.90
27667;DHT22;15074;50.940;5.282;2023-03-03T18:52:30;3.90;99.90
27667;DHT22;15074;50.940;5.282;2023-03-03T19:08:23;3.40;99.90
27667;DHT22;15074;50.940;5.282;2023-03-03T19:10:55;3.30;99.90
27667;DHT22;15074;50.940;5.282;2023-03-03T19:13:41;3.50;99.90
27667;DHT22;15074;50.940;5.282;2023-03-03T19:22:24;3.50;99.90
27667;DHT22;15074;50.940;5.282;2023-03-03T19:25:17;3.30;99.90
27667;DHT22;15074;50.940;5.282;2023-03-03T19:30:44;3.10;99.90
27667;DHT22;15074;50.940;5.282;2023-03-03T19:36:46;2.80;99.90
27667;DHT22;15074;50.940;5.282;2023-03-03T19:42:35;2.90;99.90
27667;DHT22;15074;50.940;5.282;2023-03-03T19:51:46;3.00;99.90
27667;DHT22;15074;50.940;5.282;2023-03-03T19:57:37;3.20;99.90
27667;DHT22;15074;50.940;5.282;2023-03-03T20:07:08;3.10;99.90
27667;DHT22;15074;50.940;5.282;2023-03-03T20:09:47;3.40;99.90
27667;DHT22;15074;50.940;5.282;2023-03-03T20:15:10;3.50;99.90
27667;DHT22;15074;50.940;5.282;2023-03-03T20:18:02;3.50;99.90
27667;DHT22;15074;50.940;5.282;2023-03-03T20:20:48;3.30;99.90
27667;DHT22;15074;50.940;5.282;2023-03-03T20:26:18;3.50;99.90
27667;DHT22;15074;50.940;5.282;2023-03-03T20:37:20;3.60;99.90
27667;DHT22;15074;50.940;5.282;2023-03-03T20:40:37;3.60;99.90
27667;DHT22;15074;50.940;5.282;2023-03-03T20:51:31;3.40;99.90
27667;DHT22;15074;50.940;5.282;2023-03-03T20:56:40;3.40;99.90
27667;DHT22;15074;50.940;5.282;2023-03-03T21:04:22;3.20;99.90
27667;DHT22;15074;50.940;5.282;2023-03-03T21:06:48;3.30;99.90
27667;DHT22;15074;50.940;5.282;2023-03-03T21:09:34;3.40;99.90
27667;DHT22;15074;50.940;5.282;2023-03-03T21:12:27;3.40;99.90
27667;DHT22;15074;50.940;5.282;2023-03-03T21:15:06;3.50;99.90
27667;DHT22;15074;50.940;5.282;2023-03-03T21:17:32;3.40;99.90
27667;DHT22;15074;50.940;5.282;2023-03-03T21:20:28;3.40;99.90
27667;DHT22;15074;50.940;5.282;2023-03-03T21:22:56;3.50;99.90
27667;DHT22;15074;50.940;5.282;2023-03-03T21:25:41;3.50;99.90
27667;DHT22;15074;50.940;5.282;2023-03-03T21:28:19;3.60;99.90
27667;DHT22;15074;50.940;5.282;2023-03-03T21:31:05;3.70;99.90
27667;DHT22;15074;50.940;5.282;2023-03-03T21:33:50;3.60;99.90
27667;DHT22;15074;50.940;5.282;2023-03-03T21:38:56;3.20;99.90
27667;DHT22;15074;50.940;5.282;2023-03-03T21:41:23;3.10;99.90
27667;DHT22;15074;50.940;5.282;2023-03-03T21:50:01;3.30;99.90
27667;DHT22;15074;50.940;5.282;2023-03-03T21:52:28;3.60;99.90
27667;DHT22;15074;50.940;5.282;2023-03-03T21:54:53;3.70;99.90
27667;DHT22;15074;50.940;5.282;2023-03-03T21:57:19;3.70;99.90
27667;DHT22;15074;50.940;5.282;2023-03-03T21:59:46;3.50;99.90
27667;DHT22;15074;50.940;5.282;2023-03-03T22:02:11;3.20;99.90
27667;DHT22;15074;50.940;5.282;2023-03-03T22:04:37;3.30;99.90
27667;DHT22;15074;50.940;5.282;2023-03-03T22:07:03;3.40;99.90
27667;DHT22;15074;50.940;5.282;2023-03-03T22:09:29;3.30;99.90
27667;DHT22;15074;50.940;5.282;2023-03-03T22:11:54;3.40;99.90
27667;DHT22;15074;50.940;5.282;2023-03-03T22:14:20;3.40;99.90
27667;DHT22;15074;50.940;5.282;2023-03-03T22:16:46;3.50;99.90
27667;DHT22;15074;50.940;5.282;2023-03-03T22:19:11;3.50;99.90
27667;DHT22;15074;50.940;5.282;2023-03-03T22:21:38;3.30;99.90
27667;DHT22;15074;50.940;5.282;2023-03-03T22:24:05;3.20;99.90
27667;DHT22;15074;50.940;5.282;2023-03-03T22:26:31;3.10;99.90
27667;DHT22;15074;50.940;5.282;2023-03-03T22:28:56;3.20;99.90
27667;DHT22;15074;50.940;5.282;2023-03-03T22:31:22;3.20;99.90
27667;DHT22;15074;50.940;5.282;2023-03-03T22:33:48;3.20;99.90
27667;DHT22;15074;50.940;5.282;2023-03-03T22:36:14;3.20;99.90
27667;DHT22;15074;50.940;5.282;2023-03-03T22:38:40;2.90;99.90
27667;DHT22;15074;50.940;5.282;2023-03-03T22:41:07;2.90;99.90
27667;DHT22;15074;50.940;5.282;2023-03-03T22:43:33;2.90;99.90
27667;DHT22;15074;50.940;5.282;2023-03-03T22:45:59;3.00;99.90
27667;DHT22;15074;50.940;5.282;2023-03-03T22:51:53;3.00;99.90
27667;DHT22;15074;50.940;5.282;2023-03-03T22:54:19;2.90;99.90
27667;DHT22;15074;50.940;5.282;2023-03-03T22:56:45;3.00;99.90
27667;DHT22;15074;50.940;5.282;2023-03-03T22:59:11;3.00;99.90
27667;DHT22;15074;50.940;5.282;2023-03-03T23:01:36;2.90;99.90
27667;DHT22;15074;50.940;5.282;2023-03-03T23:07:27;3.20;99.90
27667;DHT22;15074;50.940;5.282;2023-03-03T23:09:54;3.10;99.90
27667;DHT22;15074;50.940;5.282;2023-03-03T23:12:20;3.10;99.90
27667;DHT22;15074;50.940;5.282;2023-03-03T23:14:46;3.10;99.90
27667;DHT22;15074;50.940;5.282;2023-03-03T23:17:32;3.10;99.90
27667;DHT22;15074;50.940;5.282;2023-03-03T23:19:58;2.90;99.90
27667;DHT22;15074;50.940;5.282;2023-03-03T23:22:23;2.90;99.90
27667;DHT22;15074;50.940;5.282;2023-03-03T23:24:49;3.00;99.90
27667;DHT22;15074;50.940;5.282;2023-03-03T23:27:35;2.90;99.90
27667;DHT22;15074;50.940;5.282;2023-03-03T23:33:04;3.20;99.90
27667;DHT22;15074;50.940;5.282;2023-03-03T23:35:29;3.10;99.90
27667;DHT22;15074;50.940;5.282;2023-03-03T23:38:15;3.10;99.90
27667;DHT22;15074;50.940;5.282;2023-03-03T23:40:42;3.20;99.90
27667;DHT22;15074;50.940;5.282;2023-03-03T23:43:08;3.20;99.90
27667;DHT22;15074;50.940;5.282;2023-03-03T23:45:34;3.10;99.90
27667;DHT22;15074;50.940;5.282;2023-03-03T23:48:00;3.30;99.90
27667;DHT22;15074;50.940;5.282;2023-03-03T23:50:26;3.20;99.90
27667;DHT22;15074;50.940;5.282;2023-03-03T23:52:52;3.20;99.90
27667;DHT22;15074;50.940;5.282;2023-03-03T23:55:17;3.30;99.90
27667;DHT22;15074;50.940;5.282;2023-03-03T23:57:43;3.20;99.90
